sensor_id;sensor_type;location;lat;lon;timestamp;pressure;altitude;pressure_sealevel;temperature;humidity
55066;BME280;40964;42.114;24.220;2023-04-15T00:01:25;97064.59;;;8.09;100.00
55066;BME280;40964;42.114;24.220;2023-04-15T00:03:52;97061.53;;;8.12;100.00
55066;BME280;40964;42.114;24.220;2023-04-15T00:06:19;97065.50;;;8.15;100.00
55066;BME280;40964;42.114;24.220;2023-04-15T00:08:45;97068.00;;;8.10;100.00
55066;BME280;40964;42.114;24.220;2023-04-15T00:11:11;97079.56;;;8.20;100.00
55066;BME280;40964;42.114;24.220;2023-04-15T00:13:37;97082.41;;;8.19;100.00
55066;BME280;40964;42.114;24.220;2023-04-15T00:16:02;97086.53;;;8.08;100.00
55066;BME280;40964;42.114;24.220;2023-04-15T00:18:28;97086.00;;;8.00;100.00
55066;BME280;40964;42.114;24.220;2023-04-15T00:20:54;97088.28;;;7.96;100.00
55066;BME280;40964;42.114;24.220;2023-04-15T00:23:19;97091.22;;;7.81;100.00
55066;BME280;40964;42.114;24.220;2023-04-15T00:25:45;97086.22;;;7.80;100.00
55066;BME280;40964;42.114;24.220;2023-04-15T00:28:11;97077.22;;;7.76;100.00
55066;BME280;40964;42.114;24.220;2023-04-15T00:30:36;97093.84;;;7.81;100.00
55066;BME280;40964;42.114;24.220;2023-04-15T00:33:02;97083.81;;;7.78;100.00
55066;BME280;40964;42.114;24.220;2023-04-15T00:35:28;97094.31;;;7.96;100.00
55066;BME280;40964;42.114;24.220;2023-04-15T00:37:53;97083.22;;;8.01;100.00
55066;BME280;40964;42.114;24.220;2023-04-15T00:40:20;97098.91;;;8.01;100.00
55066;BME280;40964;42.114;24.220;2023-04-15T00:42:46;97095.41;;;8.07;100.00
55066;BME280;40964;42.114;24.220;2023-04-15T00:45:11;97083.34;;;8.06;100.00
55066;BME280;40964;42.114;24.220;2023-04-15T00:47:38;97094.03;;;8.05;100.00
55066;BME280;40964;42.114;24.220;2023-04-15T00:50:06;97086.75;;;8.07;100.00
55066;BME280;40964;42.114;24.220;2023-04-15T00:52:31;97084.53;;;8.10;100.00
55066;BME280;40964;42.114;24.220;2023-04-15T00:54:58;97081.22;;;8.15;100.00
55066;BME280;40964;42.114;24.220;2023-04-15T00:57:23;97070.75;;;8.15;100.00
55066;BME280;40964;42.114;24.220;2023-04-15T00:59:51;97060.84;;;8.17;100.00
55066;BME280;40964;42.114;24.220;2023-04-15T01:02:17;97057.72;;;8.26;100.00
55066;BME280;40964;42.114;24.220;2023-04-15T01:04:42;97053.50;;;8.25;100.00
55066;BME280;40964;42.114;24.220;2023-04-15T01:07:08;97049.97;;;8.20;100.00
55066;BME280;40964;42.114;24.220;2023-04-15T01:09:33;97046.16;;;8.16;100.00
55066;BME280;40964;42.114;24.220;2023-04-15T01:11:59;97050.03;;;8.13;100.00
55066;BME280;40964;42.114;24.220;2023-04-15T01:14:24;97034.31;;;7.95;100.00
55066;BME280;40964;42.114;24.220;2023-04-15T01:16:51;97041.03;;;7.91;100.00
55066;BME280;40964;42.114;24.220;2023-04-15T01:19:17;97047.91;;;7.85;100.00
55066;BME280;40964;42.114;24.220;2023-04-15T01:21:43;97061.00;;;7.85;100.00
55066;BME280;40964;42.114;24.220;2023-04-15T01:24:09;97057.59;;;7.85;100.00
55066;BME280;40964;42.114;24.220;2023-04-15T01:26:39;97065.66;;;7.83;100.00
55066;BME280;40964;42.114;24.220;2023-04-15T01:29:05;97059.41;;;7.84;100.00
55066;BME280;40964;42.114;24.220;2023-04-15T01:31:31;97066.81;;;7.87;100.00
55066;BME280;40964;42.114;24.220;2023-04-15T01:33:57;97081.66;;;7.93;100.00
55066;BME280;40964;42.114;24.220;2023-04-15T01:36:23;97082.25;;;7.95;100.00
55066;BME280;40964;42.114;24.220;2023-04-15T01:38:48;97076.56;;;7.98;100.00
55066;BME280;40964;42.114;24.220;2023-04-15T01:41:15;97056.50;;;7.92;100.00
55066;BME280;40964;42.114;24.220;2023-04-15T01:43:40;97065.22;;;8.05;100.00
55066;BME280;40964;42.114;24.220;2023-04-15T01:46:06;97079.59;;;7.77;100.00
55066;BME280;40964;42.114;24.220;2023-04-15T01:48:32;97082.28;;;7.71;100.00
55066;BME280;40964;42.114;24.220;2023-04-15T01:50:58;97081.69;;;7.68;100.00
55066;BME280;40964;42.114;24.220;2023-04-15T01:53:24;97085.69;;;7.71;100.00
55066;BME280;40964;42.114;24.220;2023-04-15T01:55:50;97097.03;;;7.65;100.00
55066;BME280;40964;42.114;24.220;2023-04-15T01:58:17;97108.34;;;7.59;100.00
55066;BME280;40964;42.114;24.220;2023-04-15T02:00:42;97124.50;;;7.56;100.00
55066;BME280;40964;42.114;24.220;2023-04-15T02:03:08;97123.34;;;7.45;100.00
55066;BME280;40964;42.114;24.220;2023-04-15T02:05:34;97131.84;;;7.40;100.00
55066;BME280;40964;42.114;24.220;2023-04-15T02:07:59;97131.84;;;7.40;100.00
55066;BME280;40964;42.114;24.220;2023-04-15T02:10:25;97120.56;;;7.40;100.00
55066;BME280;40964;42.114;24.220;2023-04-15T02:12:51;97116.97;;;7.34;100.00
55066;BME280;40964;42.114;24.220;2023-04-15T02:15:17;97117.03;;;7.28;100.00
55066;BME280;40964;42.114;24.220;2023-04-15T02:17:42;97122.47;;;7.26;100.00
55066;BME280;40964;42.114;24.220;2023-04-15T02:20:10;97115.84;;;7.24;100.00
55066;BME280;40964;42.114;24.220;2023-04-15T02:22:36;97106.22;;;7.18;100.00
55066;BME280;40964;42.114;24.220;2023-04-15T02:25:01;97116.06;;;7.22;100.00
55066;BME280;40964;42.114;24.220;2023-04-15T02:27:27;97111.84;;;7.21;100.00
55066;BME280;40964;42.114;24.220;2023-04-15T02:29:53;97098.59;;;7.16;100.00
55066;BME280;40964;42.114;24.220;2023-04-15T02:32:19;97102.22;;;7.15;100.00
55066;BME280;40964;42.114;24.220;2023-04-15T02:34:44;97124.75;;;7.16;100.00
55066;BME280;40964;42.114;24.220;2023-04-15T02:37:11;97128.75;;;7.19;100.00
55066;BME280;40964;42.114;24.220;2023-04-15T02:39:37;97133.78;;;7.20;100.00
55066;BME280;40964;42.114;24.220;2023-04-15T02:42:03;97139.03;;;7.20;100.00
55066;BME280;40964;42.114;24.220;2023-04-15T02:44:30;97140.44;;;7.16;100.00
55066;BME280;40964;42.114;24.220;2023-04-15T02:46:57;97137.81;;;7.16;100.00
55066;BME280;40964;42.114;24.220;2023-04-15T02:49:24;97144.41;;;7.25;100.00
55066;BME280;40964;42.114;24.220;2023-04-15T02:51:50;97139.34;;;7.30;100.00
55066;BME280;40964;42.114;24.220;2023-04-15T02:54:19;97147.03;;;7.25;100.00
55066;BME280;40964;42.114;24.220;2023-04-15T02:56:45;97143.28;;;7.15;100.00
55066;BME280;40964;42.114;24.220;2023-04-15T02:59:11;97138.69;;;7.10;100.00
55066;BME280;40964;42.114;24.220;2023-04-15T03:01:37;97118.88;;;6.89;100.00
55066;BME280;40964;42.114;24.220;2023-04-15T03:04:02;97120.09;;;6.87;100.00
55066;BME280;40964;42.114;24.220;2023-04-15T03:06:28;97112.50;;;6.78;100.00
55066;BME280;40964;42.114;24.220;2023-04-15T03:08:53;97120.06;;;6.93;100.00
55066;BME280;40964;42.114;24.220;2023-04-15T03:11:19;97118.81;;;7.02;100.00
55066;BME280;40964;42.114;24.220;2023-04-15T03:13:45;97126.84;;;7.01;100.00
55066;BME280;40964;42.114;24.220;2023-04-15T03:16:11;97123.25;;;7.02;100.00
55066;BME280;40964;42.114;24.220;2023-04-15T03:18:36;97123.53;;;7.19;100.00
55066;BME280;40964;42.114;24.220;2023-04-15T03:21:03;97129.38;;;7.21;100.00
55066;BME280;40964;42.114;24.220;2023-04-15T03:23:30;97127.13;;;7.24;100.00
55066;BME280;40964;42.114;24.220;2023-04-15T03:25:55;97131.31;;;7.25;100.00
55066;BME280;40964;42.114;24.220;2023-04-15T03:28:22;97132.19;;;7.19;100.00
55066;BME280;40964;42.114;24.220;2023-04-15T03:30:48;97132.84;;;7.08;100.00
55066;BME280;40964;42.114;24.220;2023-04-15T03:33:13;97140.69;;;7.08;100.00
55066;BME280;40964;42.114;24.220;2023-04-15T03:35:39;97150.94;;;7.09;100.00
55066;BME280;40964;42.114;24.220;2023-04-15T03:38:04;97151.31;;;7.13;100.00
55066;BME280;40964;42.114;24.220;2023-04-15T03:40:29;97153.72;;;7.15;100.00
55066;BME280;40964;42.114;24.220;2023-04-15T03:42:55;97148.88;;;7.18;100.00
55066;BME280;40964;42.114;24.220;2023-04-15T03:45:21;97152.94;;;7.14;100.00
55066;BME280;40964;42.114;24.220;2023-04-15T03:47:46;97165.78;;;7.16;100.00
55066;BME280;40964;42.114;24.220;2023-04-15T03:50:12;97169.78;;;7.18;100.00
55066;BME280;40964;42.114;24.220;2023-04-15T03:52:37;97161.75;;;7.20;100.00
55066;BME280;40964;42.114;24.220;2023-04-15T03:55:03;97156.53;;;7.20;100.00
55066;BME280;40964;42.114;24.220;2023-04-15T03:57:28;97169.97;;;7.23;100.00
55066;BME280;40964;42.114;24.220;2023-04-15T03:59:54;97156.69;;;7.25;100.00
55066;BME280;40964;42.114;24.220;2023-04-15T04:02:19;97165.91;;;7.27;100.00
55066;BME280;40964;42.114;24.220;2023-04-15T04:04:45;97163.28;;;7.27;100.00
55066;BME280;40964;42.114;24.220;2023-04-15T04:07:15;97166.53;;;7.29;100.00
55066;BME280;40964;42.114;24.220;2023-04-15T04:09:40;97171.78;;;7.23;100.00
55066;BME280;40964;42.114;24.220;2023-04-15T04:12:06;97169.59;;;7.20;100.00
55066;BME280;40964;42.114;24.220;2023-04-15T04:14:31;97175.63;;;7.20;100.00
55066;BME280;40964;42.114;24.220;2023-04-15T04:16:57;97180.34;;;7.05;100.00
55066;BME280;40964;42.114;24.220;2023-04-15T04:19:22;97181.09;;;7.12;100.00
55066;BME280;40964;42.114;24.220;2023-04-15T04:21:48;97185.22;;;7.33;100.00
55066;BME280;40964;42.114;24.220;2023-04-15T04:24:13;97184.75;;;7.74;100.00
55066;BME280;40964;42.114;24.220;2023-04-15T04:26:38;97193.78;;;8.21;99.77
55066;BME280;40964;42.114;24.220;2023-04-15T04:29:04;97195.63;;;8.64;97.32
55066;BME280;40964;42.114;24.220;2023-04-15T04:31:29;97191.38;;;9.00;94.91
55066;BME280;40964;42.114;24.220;2023-04-15T04:33:55;97187.66;;;9.37;92.62
55066;BME280;40964;42.114;24.220;2023-04-15T04:36:20;97198.00;;;9.74;89.16
55066;BME280;40964;42.114;24.220;2023-04-15T04:38:46;97199.66;;;10.10;87.17
55066;BME280;40964;42.114;24.220;2023-04-15T04:41:11;97192.94;;;10.49;85.42
55066;BME280;40964;42.114;24.220;2023-04-15T04:43:36;97192.88;;;10.85;83.76
55066;BME280;40964;42.114;24.220;2023-04-15T04:46:02;97192.81;;;11.08;82.94
55066;BME280;40964;42.114;24.220;2023-04-15T04:48:27;97207.50;;;11.32;82.15
55066;BME280;40964;42.114;24.220;2023-04-15T04:50:53;97209.66;;;11.35;80.55
55066;BME280;40964;42.114;24.220;2023-04-15T04:53:18;97215.47;;;11.37;79.61
55066;BME280;40964;42.114;24.220;2023-04-15T04:55:44;97204.84;;;11.61;77.73
55066;BME280;40964;42.114;24.220;2023-04-15T04:58:09;97215.25;;;11.84;77.71
55066;BME280;40964;42.114;24.220;2023-04-15T05:00:35;97215.78;;;12.15;77.01
55066;BME280;40964;42.114;24.220;2023-04-15T05:03:02;97214.72;;;12.33;74.25
55066;BME280;40964;42.114;24.220;2023-04-15T05:05:28;97218.66;;;11.97;77.09
55066;BME280;40964;42.114;24.220;2023-04-15T05:07:53;97230.03;;;11.00;81.34
55066;BME280;40964;42.114;24.220;2023-04-15T05:10:19;97235.09;;;10.90;82.39
55066;BME280;40964;42.114;24.220;2023-04-15T05:12:45;97238.19;;;10.75;83.44
55066;BME280;40964;42.114;24.220;2023-04-15T05:15:10;97243.19;;;11.00;83.19
55066;BME280;40964;42.114;24.220;2023-04-15T05:17:36;97231.16;;;11.04;82.31
55066;BME280;40964;42.114;24.220;2023-04-15T05:20:02;97244.34;;;11.32;83.02
55066;BME280;40964;42.114;24.220;2023-04-15T05:22:28;97237.25;;;11.61;80.58
55066;BME280;40964;42.114;24.220;2023-04-15T05:24:53;97242.75;;;11.60;79.78
55066;BME280;40964;42.114;24.220;2023-04-15T05:27:19;97247.03;;;11.78;80.33
55066;BME280;40964;42.114;24.220;2023-04-15T05:29:44;97242.69;;;12.17;78.61
55066;BME280;40964;42.114;24.220;2023-04-15T05:32:10;97249.78;;;12.33;79.09
55066;BME280;40964;42.114;24.220;2023-04-15T05:34:36;97252.81;;;12.42;77.81
55066;BME280;40964;42.114;24.220;2023-04-15T05:37:01;97246.34;;;12.49;78.70
55066;BME280;40964;42.114;24.220;2023-04-15T05:39:27;97246.75;;;12.58;76.64
55066;BME280;40964;42.114;24.220;2023-04-15T05:41:52;97256.72;;;12.56;77.31
55066;BME280;40964;42.114;24.220;2023-04-15T05:44:18;97256.56;;;12.29;76.69
55066;BME280;40964;42.114;24.220;2023-04-15T05:46:43;97264.31;;;12.19;76.73
55066;BME280;40964;42.114;24.220;2023-04-15T05:49:09;97262.25;;;12.04;75.29
55066;BME280;40964;42.114;24.220;2023-04-15T05:51:34;97252.28;;;11.78;76.81
55066;BME280;40964;42.114;24.220;2023-04-15T05:54:00;97270.53;;;11.68;76.62
55066;BME280;40964;42.114;24.220;2023-04-15T05:56:26;97267.03;;;11.90;79.85
55066;BME280;40964;42.114;24.220;2023-04-15T05:58:52;97268.91;;;12.24;80.25
55066;BME280;40964;42.114;24.220;2023-04-15T06:01:18;97281.66;;;12.48;78.35
55066;BME280;40964;42.114;24.220;2023-04-15T06:03:43;97277.75;;;12.34;74.83
55066;BME280;40964;42.114;24.220;2023-04-15T06:06:09;97270.72;;;12.06;78.28
55066;BME280;40964;42.114;24.220;2023-04-15T06:08:34;97280.78;;;12.26;78.00
55066;BME280;40964;42.114;24.220;2023-04-15T06:11:00;97291.00;;;12.06;78.51
55066;BME280;40964;42.114;24.220;2023-04-15T06:13:26;97296.03;;;11.50;78.66
55066;BME280;40964;42.114;24.220;2023-04-15T06:15:51;97297.75;;;11.45;78.07
55066;BME280;40964;42.114;24.220;2023-04-15T06:18:17;97293.47;;;11.27;80.44
55066;BME280;40964;42.114;24.220;2023-04-15T06:20:44;97296.72;;;11.05;82.00
55066;BME280;40964;42.114;24.220;2023-04-15T06:23:10;97306.63;;;11.27;82.09
55066;BME280;40964;42.114;24.220;2023-04-15T06:25:35;97304.16;;;11.49;79.84
55066;BME280;40964;42.114;24.220;2023-04-15T06:28:01;97307.66;;;11.66;77.67
55066;BME280;40964;42.114;24.220;2023-04-15T06:30:26;97309.06;;;11.85;76.75
55066;BME280;40964;42.114;24.220;2023-04-15T06:32:52;97310.34;;;12.28;78.13
55066;BME280;40964;42.114;24.220;2023-04-15T06:35:18;97307.81;;;12.50;76.51
55066;BME280;40964;42.114;24.220;2023-04-15T06:37:44;97312.75;;;12.30;72.60
55066;BME280;40964;42.114;24.220;2023-04-15T06:40:09;97313.94;;;12.56;72.90
55066;BME280;40964;42.114;24.220;2023-04-15T06:42:35;97317.56;;;12.49;71.37
55066;BME280;40964;42.114;24.220;2023-04-15T06:45:03;97323.53;;;12.62;72.15
55066;BME280;40964;42.114;24.220;2023-04-15T06:47:29;97322.94;;;12.93;70.81
55066;BME280;40964;42.114;24.220;2023-04-15T06:49:54;97322.44;;;13.30;72.25
55066;BME280;40964;42.114;24.220;2023-04-15T06:52:19;97329.16;;;13.64;69.63
55066;BME280;40964;42.114;24.220;2023-04-15T06:54:45;97323.41;;;13.95;72.27
55066;BME280;40964;42.114;24.220;2023-04-15T06:57:11;97318.69;;;14.29;68.29
55066;BME280;40964;42.114;24.220;2023-04-15T06:59:36;97318.53;;;14.40;65.96
55066;BME280;40964;42.114;24.220;2023-04-15T07:02:01;97323.28;;;14.65;66.42
55066;BME280;40964;42.114;24.220;2023-04-15T07:04:27;97326.88;;;14.91;65.39
55066;BME280;40964;42.114;24.220;2023-04-15T07:06:53;97313.47;;;15.08;62.22
55066;BME280;40964;42.114;24.220;2023-04-15T07:09:21;97313.72;;;15.01;60.97
55066;BME280;40964;42.114;24.220;2023-04-15T07:11:46;97318.16;;;14.96;61.20
55066;BME280;40964;42.114;24.220;2023-04-15T07:14:12;97324.00;;;14.98;62.54
55066;BME280;40964;42.114;24.220;2023-04-15T07:16:37;97317.22;;;15.12;61.93
55066;BME280;40964;42.114;24.220;2023-04-15T07:19:03;97328.88;;;15.16;62.79
55066;BME280;40964;42.114;24.220;2023-04-15T07:21:28;97322.59;;;15.32;61.34
55066;BME280;40964;42.114;24.220;2023-04-15T07:23:54;97327.09;;;15.32;61.03
55066;BME280;40964;42.114;24.220;2023-04-15T07:26:19;97313.91;;;15.42;65.28
55066;BME280;40964;42.114;24.220;2023-04-15T07:28:44;97317.88;;;15.45;64.42
55066;BME280;40964;42.114;24.220;2023-04-15T07:31:11;97321.75;;;15.22;67.18
55066;BME280;40964;42.114;24.220;2023-04-15T07:33:37;97317.47;;;15.11;68.50
55066;BME280;40964;42.114;24.220;2023-04-15T07:36:02;97314.06;;;15.20;69.56
55066;BME280;40964;42.114;24.220;2023-04-15T07:38:28;97317.22;;;15.12;68.09
55066;BME280;40964;42.114;24.220;2023-04-15T07:40:54;97317.94;;;15.02;69.48
55066;BME280;40964;42.114;24.220;2023-04-15T07:43:19;97325.75;;;14.82;69.43
55066;BME280;40964;42.114;24.220;2023-04-15T07:45:45;97319.91;;;15.27;69.35
55066;BME280;40964;42.114;24.220;2023-04-15T07:48:11;97327.91;;;15.32;70.57
55066;BME280;40964;42.114;24.220;2023-04-15T07:50:36;97331.63;;;15.37;68.43
55066;BME280;40964;42.114;24.220;2023-04-15T07:53:02;97327.47;;;15.56;67.85
55066;BME280;40964;42.114;24.220;2023-04-15T07:55:27;97324.19;;;15.91;68.93
55066;BME280;40964;42.114;24.220;2023-04-15T07:57:54;97336.59;;;15.75;67.27
55066;BME280;40964;42.114;24.220;2023-04-15T08:00:20;97329.66;;;15.69;69.02
55066;BME280;40964;42.114;24.220;2023-04-15T08:02:46;97348.25;;;15.79;67.25
55066;BME280;40964;42.114;24.220;2023-04-15T08:05:13;97334.81;;;16.11;69.67
55066;BME280;40964;42.114;24.220;2023-04-15T08:07:39;97338.81;;;16.24;65.83
55066;BME280;40964;42.114;24.220;2023-04-15T08:10:05;97342.53;;;16.28;65.61
55066;BME280;40964;42.114;24.220;2023-04-15T08:12:31;97323.41;;;16.52;64.70
55066;BME280;40964;42.114;24.220;2023-04-15T08:14:57;97304.84;;;16.31;63.06
55066;BME280;40964;42.114;24.220;2023-04-15T08:17:23;97332.22;;;16.78;63.47
55066;BME280;40964;42.114;24.220;2023-04-15T08:19:48;97325.50;;;17.21;62.39
55066;BME280;40964;42.114;24.220;2023-04-15T08:22:14;97333.06;;;17.58;59.06
55066;BME280;40964;42.114;24.220;2023-04-15T08:24:40;97328.16;;;17.21;61.68
55066;BME280;40964;42.114;24.220;2023-04-15T08:27:06;97330.28;;;17.14;60.04
55066;BME280;40964;42.114;24.220;2023-04-15T08:29:32;97316.16;;;17.28;58.05
55066;BME280;40964;42.114;24.220;2023-04-15T08:31:59;97310.72;;;17.59;58.50
55066;BME280;40964;42.114;24.220;2023-04-15T08:34:25;97310.47;;;17.55;58.93
55066;BME280;40964;42.114;24.220;2023-04-15T08:36:51;97310.31;;;17.31;60.47
55066;BME280;40964;42.114;24.220;2023-04-15T08:39:16;97309.13;;;17.58;59.32
55066;BME280;40964;42.114;24.220;2023-04-15T08:41:47;97306.00;;;17.46;62.85
55066;BME280;40964;42.114;24.220;2023-04-15T08:44:13;97312.50;;;17.79;60.95
55066;BME280;40964;42.114;24.220;2023-04-15T08:46:40;97313.44;;;17.49;58.81
55066;BME280;40964;42.114;24.220;2023-04-15T08:49:10;97313.91;;;17.71;59.47
55066;BME280;40964;42.114;24.220;2023-04-15T08:51:40;97320.47;;;17.84;58.67
55066;BME280;40964;42.114;24.220;2023-04-15T08:54:09;97322.34;;;17.78;61.33
55066;BME280;40964;42.114;24.220;2023-04-15T08:56:35;97324.00;;;17.64;60.12
55066;BME280;40964;42.114;24.220;2023-04-15T08:59:01;97325.41;;;17.41;60.72
55066;BME280;40964;42.114;24.220;2023-04-15T09:01:27;97324.78;;;17.70;62.34
55066;BME280;40964;42.114;24.220;2023-04-15T09:03:53;97316.47;;;17.86;60.56
55066;BME280;40964;42.114;24.220;2023-04-15T09:06:21;97327.84;;;17.97;60.09
55066;BME280;40964;42.114;24.220;2023-04-15T09:08:46;97313.78;;;18.31;60.51
55066;BME280;40964;42.114;24.220;2023-04-15T09:11:12;97314.25;;;18.38;56.93
55066;BME280;40964;42.114;24.220;2023-04-15T09:13:38;97308.38;;;18.41;58.36
55066;BME280;40964;42.114;24.220;2023-04-15T09:16:04;97306.84;;;18.98;58.51
55066;BME280;40964;42.114;24.220;2023-04-15T09:18:34;97306.84;;;18.98;54.09
55066;BME280;40964;42.114;24.220;2023-04-15T09:21:08;97301.44;;;18.79;53.64
55066;BME280;40964;42.114;24.220;2023-04-15T09:23:36;97301.53;;;18.35;54.20
55066;BME280;40964;42.114;24.220;2023-04-15T09:26:03;97292.97;;;18.38;52.15
55066;BME280;40964;42.114;24.220;2023-04-15T09:28:28;97309.72;;;18.43;53.65
55066;BME280;40964;42.114;24.220;2023-04-15T09:30:55;97301.59;;;18.25;55.15
55066;BME280;40964;42.114;24.220;2023-04-15T09:33:22;97304.66;;;18.03;54.41
55066;BME280;40964;42.114;24.220;2023-04-15T09:35:57;97302.78;;;18.42;53.56
55066;BME280;40964;42.114;24.220;2023-04-15T09:38:23;97295.13;;;18.36;55.88
55066;BME280;40964;42.114;24.220;2023-04-15T09:40:49;97302.59;;;18.68;55.33
55066;BME280;40964;42.114;24.220;2023-04-15T09:43:14;97294.72;;;18.53;56.87
55066;BME280;40964;42.114;24.220;2023-04-15T09:45:53;97290.78;;;18.45;52.90
55066;BME280;40964;42.114;24.220;2023-04-15T09:48:23;97292.66;;;18.79;53.51
55066;BME280;40964;42.114;24.220;2023-04-15T09:50:51;97284.44;;;18.99;53.97
55066;BME280;40964;42.114;24.220;2023-04-15T09:53:23;97284.00;;;19.16;54.46
55066;BME280;40964;42.114;24.220;2023-04-15T09:55:59;97282.75;;;19.08;52.21
55066;BME280;40964;42.114;24.220;2023-04-15T09:58:31;97280.66;;;19.48;51.05
55066;BME280;40964;42.114;24.220;2023-04-15T10:01:03;97284.06;;;19.77;46.48
55066;BME280;40964;42.114;24.220;2023-04-15T10:03:32;97283.53;;;19.75;47.89
55066;BME280;40964;42.114;24.220;2023-04-15T10:06:00;97286.75;;;19.29;48.99
55066;BME280;40964;42.114;24.220;2023-04-15T10:08:28;97284.34;;;19.33;51.23
55066;BME280;40964;42.114;24.220;2023-04-15T10:10:54;97279.66;;;19.44;52.88
55066;BME280;40964;42.114;24.220;2023-04-15T10:13:23;97268.91;;;19.73;49.90
55066;BME280;40964;42.114;24.220;2023-04-15T10:16:00;97276.03;;;19.59;47.80
55066;BME280;40964;42.114;24.220;2023-04-15T10:18:31;97274.44;;;19.76;48.34
55066;BME280;40964;42.114;24.220;2023-04-15T10:20:59;97269.19;;;19.71;46.80
55066;BME280;40964;42.114;24.220;2023-04-15T10:23:25;97260.97;;;20.05;41.52
55066;BME280;40964;42.114;24.220;2023-04-15T10:25:53;97252.94;;;20.57;41.32
55066;BME280;40964;42.114;24.220;2023-04-15T10:28:22;97251.00;;;20.90;42.43
55066;BME280;40964;42.114;24.220;2023-04-15T10:30:47;97249.78;;;20.22;45.60
55066;BME280;40964;42.114;24.220;2023-04-15T10:33:14;97241.06;;;19.98;46.95
55066;BME280;40964;42.114;24.220;2023-04-15T10:35:41;97235.94;;;19.82;48.01
55066;BME280;40964;42.114;24.220;2023-04-15T10:38:39;97231.34;;;19.88;52.10
55066;BME280;40964;42.114;24.220;2023-04-15T10:44:06;97232.50;;;19.82;49.83
55066;BME280;40964;42.114;24.220;2023-04-15T10:49:07;97228.72;;;20.02;48.78
55066;BME280;40964;42.114;24.220;2023-04-15T10:51:36;97224.56;;;19.96;49.26
55066;BME280;40964;42.114;24.220;2023-04-15T10:54:08;97230.31;;;20.35;49.72
55066;BME280;40964;42.114;24.220;2023-04-15T10:56:37;97225.56;;;20.32;45.84
55066;BME280;40964;42.114;24.220;2023-04-15T10:59:05;97217.91;;;20.45;47.00
55066;BME280;40964;42.114;24.220;2023-04-15T11:01:55;97223.16;;;20.31;48.71
55066;BME280;40964;42.114;24.220;2023-04-15T11:04:52;97210.63;;;19.80;45.80
55066;BME280;40964;42.114;24.220;2023-04-15T11:10:03;97216.13;;;20.21;47.00
55066;BME280;40964;42.114;24.220;2023-04-15T11:12:35;97220.56;;;20.45;45.31
55066;BME280;40964;42.114;24.220;2023-04-15T11:17:55;97215.41;;;19.64;45.04
55066;BME280;40964;42.114;24.220;2023-04-15T11:20:21;97215.09;;;19.84;43.98
55066;BME280;40964;42.114;24.220;2023-04-15T11:22:48;97208.25;;;19.97;44.42
55066;BME280;40964;42.114;24.220;2023-04-15T11:25:33;97211.75;;;20.11;43.38
55066;BME280;40964;42.114;24.220;2023-04-15T11:28:00;97207.38;;;20.34;44.34
55066;BME280;40964;42.114;24.220;2023-04-15T11:30:31;97200.00;;;20.45;44.74
55066;BME280;40964;42.114;24.220;2023-04-15T11:32:59;97204.28;;;20.60;46.20
55066;BME280;40964;42.114;24.220;2023-04-15T11:35:25;97209.28;;;20.15;46.50
55066;BME280;40964;42.114;24.220;2023-04-15T11:37:51;97202.34;;;20.47;45.51
55066;BME280;40964;42.114;24.220;2023-04-15T11:40:21;97200.94;;;20.35;46.02
55066;BME280;40964;42.114;24.220;2023-04-15T11:43:05;97200.94;;;20.03;45.95
55066;BME280;40964;42.114;24.220;2023-04-15T11:45:31;97195.06;;;19.87;45.23
55066;BME280;40964;42.114;24.220;2023-04-15T11:48:09;97196.91;;;19.49;45.28
55066;BME280;40964;42.114;24.220;2023-04-15T11:50:36;97197.63;;;19.36;45.53
55066;BME280;40964;42.114;24.220;2023-04-15T11:53:05;97192.59;;;19.53;45.66
55066;BME280;40964;42.114;24.220;2023-04-15T11:58:15;97186.47;;;19.34;45.24
55066;BME280;40964;42.114;24.220;2023-04-15T12:03:22;97182.53;;;19.69;44.36
55066;BME280;40964;42.114;24.220;2023-04-15T12:13:16;97175.19;;;20.72;44.10
55066;BME280;40964;42.114;24.220;2023-04-15T12:20:10;97175.84;;;19.85;44.12
55066;BME280;40964;42.114;24.220;2023-04-15T12:22:38;97177.16;;;19.88;44.35
55066;BME280;40964;42.114;24.220;2023-04-15T12:25:04;97177.63;;;20.08;45.42
55066;BME280;40964;42.114;24.220;2023-04-15T12:27:30;97181.94;;;20.23;46.39
55066;BME280;40964;42.114;24.220;2023-04-15T12:30:04;97181.50;;;19.83;44.96
55066;BME280;40964;42.114;24.220;2023-04-15T12:32:34;97182.50;;;19.88;46.50
55066;BME280;40964;42.114;24.220;2023-04-15T12:34:59;97177.25;;;19.82;46.00
55066;BME280;40964;42.114;24.220;2023-04-15T12:37:25;97183.88;;;19.85;45.76
55066;BME280;40964;42.114;24.220;2023-04-15T12:39:51;97180.84;;;19.73;46.24
55066;BME280;40964;42.114;24.220;2023-04-15T12:42:18;97177.97;;;19.88;46.51
55066;BME280;40964;42.114;24.220;2023-04-15T12:44:45;97169.13;;;20.06;46.36
55066;BME280;40964;42.114;24.220;2023-04-15T12:47:11;97185.44;;;20.05;45.96
55066;BME280;40964;42.114;24.220;2023-04-15T12:52:12;97179.72;;;19.79;46.60
55066;BME280;40964;42.114;24.220;2023-04-15T12:54:38;97182.16;;;19.75;48.43
55066;BME280;40964;42.114;24.220;2023-04-15T12:57:03;97180.00;;;19.77;45.34
55066;BME280;40964;42.114;24.220;2023-04-15T12:59:29;97181.91;;;19.91;44.42
55066;BME280;40964;42.114;24.220;2023-04-15T13:01:54;97187.09;;;20.01;45.21
55066;BME280;40964;42.114;24.220;2023-04-15T13:04:20;97184.53;;;20.09;44.57
55066;BME280;40964;42.114;24.220;2023-04-15T13:06:45;97186.34;;;19.81;43.25
55066;BME280;40964;42.114;24.220;2023-04-15T13:09:11;97185.31;;;19.96;45.64
55066;BME280;40964;42.114;24.220;2023-04-15T13:11:37;97172.00;;;20.10;44.59
55066;BME280;40964;42.114;24.220;2023-04-15T13:14:04;97179.09;;;20.01;44.01
55066;BME280;40964;42.114;24.220;2023-04-15T13:16:30;97178.75;;;19.89;43.54
55066;BME280;40964;42.114;24.220;2023-04-15T13:18:57;97177.00;;;19.98;45.38